sensor_id;sensor_type;location;lat;lon;timestamp;pressure;altitude;pressure_sealevel;temperature;humidity
53041;BME280;39326;42.650;23.248;2023-03-07T00:01:28;91770.63;;;6.65;57.82
53041;BME280;39326;42.650;23.248;2023-03-07T00:03:54;91750.97;;;6.70;58.37
53041;BME280;39326;42.650;23.248;2023-03-07T00:06:20;91760.06;;;6.69;58.23
53041;BME280;39326;42.650;23.248;2023-03-07T00:08:54;91743.78;;;6.77;57.88
53041;BME280;39326;42.650;23.248;2023-03-07T00:11:20;91744.53;;;6.81;57.38
53041;BME280;39326;42.650;23.248;2023-03-07T00:13:45;91743.78;;;6.84;57.58
53041;BME280;39326;42.650;23.248;2023-03-07T00:16:16;91734.31;;;6.91;57.54
53041;BME280;39326;42.650;23.248;2023-03-07T00:18:42;91741.50;;;6.94;57.07
53041;BME280;39326;42.650;23.248;2023-03-07T00:21:12;91732.03;;;7.00;56.61
53041;BME280;39326;42.650;23.248;2023-03-07T00:23:41;91725.59;;;7.08;56.81
53041;BME280;39326;42.650;23.248;2023-03-07T00:26:14;91722.94;;;7.08;56.86
53041;BME280;39326;42.650;23.248;2023-03-07T00:28:40;91731.25;;;7.10;56.08
53041;BME280;39326;42.650;23.248;2023-03-07T00:31:07;91730.50;;;7.06;56.59
53041;BME280;39326;42.650;23.248;2023-03-07T00:33:33;91732.78;;;7.04;56.10
53041;BME280;39326;42.650;23.248;2023-03-07T00:36:04;91714.63;;;6.95;56.53
53041;BME280;39326;42.650;23.248;2023-03-07T00:38:31;91713.47;;;6.96;56.17
53041;BME280;39326;42.650;23.248;2023-03-07T00:41:07;91735.06;;;7.09;56.53
53041;BME280;39326;42.650;23.248;2023-03-07T00:43:34;91719.16;;;7.13;55.31
53041;BME280;39326;42.650;23.248;2023-03-07T00:46:00;91734.66;;;7.10;56.05
53041;BME280;39326;42.650;23.248;2023-03-07T00:48:27;91727.50;;;6.90;56.10
53041;BME280;39326;42.650;23.248;2023-03-07T00:50:53;91735.44;;;7.07;55.79
53041;BME280;39326;42.650;23.248;2023-03-07T00:53:20;91726.34;;;6.98;56.24
53041;BME280;39326;42.650;23.248;2023-03-07T00:55:53;91697.56;;;7.03;54.99
53041;BME280;39326;42.650;23.248;2023-03-07T00:58:18;91707.06;;;7.01;55.09
53041;BME280;39326;42.650;23.248;2023-03-07T01:00:44;91720.66;;;7.10;54.74
53041;BME280;39326;42.650;23.248;2023-03-07T01:03:09;91710.06;;;7.03;54.99
53041;BME280;39326;42.650;23.248;2023-03-07T01:05:38;91707.78;;;7.08;54.44
53041;BME280;39326;42.650;23.248;2023-03-07T01:08:03;91699.81;;;7.16;54.51
53041;BME280;39326;42.650;23.248;2023-03-07T01:10:29;91713.44;;;7.18;54.30
53041;BME280;39326;42.650;23.248;2023-03-07T01:12:56;91706.63;;;7.06;54.06
53041;BME280;39326;42.650;23.248;2023-03-07T01:15:21;91698.69;;;7.13;54.73
53041;BME280;39326;42.650;23.248;2023-03-07T01:17:47;91683.50;;;7.24;54.22
53041;BME280;39326;42.650;23.248;2023-03-07T01:20:12;91680.91;;;7.10;55.58
53041;BME280;39326;42.650;23.248;2023-03-07T01:22:38;91683.13;;;7.19;54.30
53041;BME280;39326;42.650;23.248;2023-03-07T01:25:03;91667.22;;;7.22;53.61
53041;BME280;39326;42.650;23.248;2023-03-07T01:27:29;91674.03;;;7.23;52.52
53041;BME280;39326;42.650;23.248;2023-03-07T01:29:54;91672.91;;;7.24;52.39
53041;BME280;39326;42.650;23.248;2023-03-07T01:32:19;91684.63;;;7.30;51.39
53041;BME280;39326;42.650;23.248;2023-03-07T01:34:45;91661.19;;;7.15;52.72
53041;BME280;39326;42.650;23.248;2023-03-07T01:37:10;91655.50;;;7.20;52.60
53041;BME280;39326;42.650;23.248;2023-03-07T01:39:36;91668.72;;;7.34;51.70
53041;BME280;39326;42.650;23.248;2023-03-07T01:42:01;91641.88;;;7.21;51.50
53041;BME280;39326;42.650;23.248;2023-03-07T01:44:27;91674.81;;;7.27;51.43
53041;BME280;39326;42.650;23.248;2023-03-07T01:46:53;91645.25;;;7.18;51.77
53041;BME280;39326;42.650;23.248;2023-03-07T01:51:51;91653.97;;;7.26;51.77
53041;BME280;39326;42.650;23.248;2023-03-07T01:54:19;91667.56;;;7.35;51.67
53041;BME280;39326;42.650;23.248;2023-03-07T01:56:46;91677.81;;;7.29;51.97
53041;BME280;39326;42.650;23.248;2023-03-07T01:59:16;91652.06;;;7.26;51.83
53041;BME280;39326;42.650;23.248;2023-03-07T02:01:43;91657.75;;;7.28;52.17
53041;BME280;39326;42.650;23.248;2023-03-07T02:04:33;91657.75;;;7.28;52.38
53041;BME280;39326;42.650;23.248;2023-03-07T02:07:01;91655.09;;;7.28;52.33
53041;BME280;39326;42.650;23.248;2023-03-07T02:09:28;91668.75;;;7.20;52.61
53041;BME280;39326;42.650;23.248;2023-03-07T02:11:55;91654.34;;;7.17;52.49
53041;BME280;39326;42.650;23.248;2023-03-07T02:14:21;91674.03;;;7.34;52.32
53041;BME280;39326;42.650;23.248;2023-03-07T02:16:47;91660.41;;;7.25;53.07
53041;BME280;39326;42.650;23.248;2023-03-07T02:19:28;91657.38;;;7.26;52.99
53041;BME280;39326;42.650;23.248;2023-03-07T02:22:08;91643.72;;;7.24;54.03
53041;BME280;39326;42.650;23.248;2023-03-07T02:24:42;91655.91;;;7.04;54.35
53041;BME280;39326;42.650;23.248;2023-03-07T02:27:12;91660.47;;;7.07;54.27
53041;BME280;39326;42.650;23.248;2023-03-07T02:29:38;91665.41;;;7.01;53.67
53041;BME280;39326;42.650;23.248;2023-03-07T02:32:05;91680.91;;;6.96;54.11
53041;BME280;39326;42.650;23.248;2023-03-07T02:34:30;91675.63;;;6.74;55.11
53041;BME280;39326;42.650;23.248;2023-03-07T02:37:12;91669.59;;;6.63;55.96
53041;BME280;39326;42.650;23.248;2023-03-07T02:39:41;91689.59;;;6.53;56.04
53041;BME280;39326;42.650;23.248;2023-03-07T02:42:10;91689.59;;;6.32;56.76
53041;BME280;39326;42.650;23.248;2023-03-07T02:44:37;91691.81;;;6.05;58.04
53041;BME280;39326;42.650;23.248;2023-03-07T02:47:03;91689.19;;;6.23;57.25
53041;BME280;39326;42.650;23.248;2023-03-07T02:49:33;91700.91;;;6.15;57.72
53041;BME280;39326;42.650;23.248;2023-03-07T02:51:58;91693.75;;;6.26;57.36
53041;BME280;39326;42.650;23.248;2023-03-07T02:54:25;91683.53;;;6.07;58.26
53041;BME280;39326;42.650;23.248;2023-03-07T02:56:50;91693.72;;;6.12;57.75
53041;BME280;39326;42.650;23.248;2023-03-07T02:59:16;91697.03;;;5.76;59.04
53041;BME280;39326;42.650;23.248;2023-03-07T03:01:41;91685.34;;;5.92;58.99
53041;BME280;39326;42.650;23.248;2023-03-07T03:04:07;91690.31;;;6.04;58.29
53041;BME280;39326;42.650;23.248;2023-03-07T03:06:32;91693.72;;;6.01;58.42
53041;BME280;39326;42.650;23.248;2023-03-07T03:08:58;91706.19;;;6.04;58.21
53041;BME280;39326;42.650;23.248;2023-03-07T03:11:24;91691.06;;;6.08;58.34
53041;BME280;39326;42.650;23.248;2023-03-07T03:13:50;91686.53;;;6.05;58.42
53041;BME280;39326;42.650;23.248;2023-03-07T03:16:15;91685.00;;;5.97;59.16
53041;BME280;39326;42.650;23.248;2023-03-07T03:18:41;91698.63;;;6.06;58.45
53041;BME280;39326;42.650;23.248;2023-03-07T03:21:08;91688.75;;;5.92;59.41
53041;BME280;39326;42.650;23.248;2023-03-07T03:23:34;91686.03;;;5.64;60.84
53041;BME280;39326;42.650;23.248;2023-03-07T03:26:02;91678.16;;;5.82;59.82
53041;BME280;39326;42.650;23.248;2023-03-07T03:28:29;91682.31;;;5.83;59.95
53041;BME280;39326;42.650;23.248;2023-03-07T03:30:58;91683.81;;;5.80;60.64
53041;BME280;39326;42.650;23.248;2023-03-07T03:33:26;91695.44;;;5.54;61.72
53041;BME280;39326;42.650;23.248;2023-03-07T03:35:52;91698.06;;;5.47;62.24
53041;BME280;39326;42.650;23.248;2023-03-07T03:38:17;91671.59;;;5.47;61.43
53041;BME280;39326;42.650;23.248;2023-03-07T03:40:42;91691.69;;;5.66;61.07
53041;BME280;39326;42.650;23.248;2023-03-07T03:43:08;91702.69;;;5.71;60.60
53041;BME280;39326;42.650;23.248;2023-03-07T03:45:33;91697.22;;;5.29;63.27
53041;BME280;39326;42.650;23.248;2023-03-07T03:47:59;91691.97;;;5.39;63.02
53041;BME280;39326;42.650;23.248;2023-03-07T03:50:24;91702.59;;;5.43;62.95
53041;BME280;39326;42.650;23.248;2023-03-07T03:52:49;91699.97;;;5.50;63.00
53041;BME280;39326;42.650;23.248;2023-03-07T03:55:15;91706.81;;;5.62;62.08
53041;BME280;39326;42.650;23.248;2023-03-07T03:57:40;91701.94;;;5.71;61.83
53041;BME280;39326;42.650;23.248;2023-03-07T04:00:06;91700.78;;;5.65;62.24
53041;BME280;39326;42.650;23.248;2023-03-07T04:02:33;91695.41;;;5.47;62.65
53041;BME280;39326;42.650;23.248;2023-03-07T04:04:58;91706.44;;;5.63;62.39
53041;BME280;39326;42.650;23.248;2023-03-07T04:07:24;91694.41;;;5.76;62.04
53041;BME280;39326;42.650;23.248;2023-03-07T04:09:53;91682.75;;;6.02;60.54
53041;BME280;39326;42.650;23.248;2023-03-07T04:12:19;91697.50;;;6.07;60.62
53041;BME280;39326;42.650;23.248;2023-03-07T04:14:44;91699.78;;;6.16;60.13
53041;BME280;39326;42.650;23.248;2023-03-07T04:17:09;91694.09;;;6.17;60.28
53041;BME280;39326;42.650;23.248;2023-03-07T04:19:35;91693.75;;;6.29;59.63
53041;BME280;39326;42.650;23.248;2023-03-07T04:22:00;91695.63;;;6.29;59.93
53041;BME280;39326;42.650;23.248;2023-03-07T04:24:26;91683.19;;;6.40;59.43
53041;BME280;39326;42.650;23.248;2023-03-07T04:26:51;91686.56;;;6.48;58.77
53041;BME280;39326;42.650;23.248;2023-03-07T04:29:16;91688.09;;;6.45;59.12
53041;BME280;39326;42.650;23.248;2023-03-07T04:31:42;91695.28;;;6.52;58.75
53041;BME280;39326;42.650;23.248;2023-03-07T04:34:07;91699.44;;;6.35;58.97
53041;BME280;39326;42.650;23.248;2023-03-07T04:36:33;91704.34;;;6.40;58.63
53041;BME280;39326;42.650;23.248;2023-03-07T04:38:58;91697.56;;;6.39;58.39
53041;BME280;39326;42.650;23.248;2023-03-07T04:41:24;91703.66;;;6.57;58.23
53041;BME280;39326;42.650;23.248;2023-03-07T04:43:50;91696.09;;;6.63;57.56
53041;BME280;39326;42.650;23.248;2023-03-07T04:46:17;91705.88;;;6.48;58.37
53041;BME280;39326;42.650;23.248;2023-03-07T04:48:43;91709.69;;;6.62;57.70
53041;BME280;39326;42.650;23.248;2023-03-07T04:51:08;91717.22;;;6.45;58.19
53041;BME280;39326;42.650;23.248;2023-03-07T04:53:34;91715.31;;;6.28;59.35
53041;BME280;39326;42.650;23.248;2023-03-07T04:56:01;91705.84;;;6.20;59.76
53041;BME280;39326;42.650;23.248;2023-03-07T04:58:28;91711.88;;;6.06;60.19
53041;BME280;39326;42.650;23.248;2023-03-07T05:00:54;91711.47;;;5.93;61.14
53041;BME280;39326;42.650;23.248;2023-03-07T05:03:21;91706.50;;;5.85;61.53
53041;BME280;39326;42.650;23.248;2023-03-07T05:05:47;91709.94;;;5.89;61.09
53041;BME280;39326;42.650;23.248;2023-03-07T05:08:12;91723.91;;;5.93;60.98
53041;BME280;39326;42.650;23.248;2023-03-07T05:10:38;91723.13;;;5.78;61.72
53041;BME280;39326;42.650;23.248;2023-03-07T05:13:03;91726.19;;;5.91;60.94
53041;BME280;39326;42.650;23.248;2023-03-07T05:15:29;91729.47;;;5.59;62.79
53041;BME280;39326;42.650;23.248;2023-03-07T05:17:55;91740.84;;;5.74;61.95
53041;BME280;39326;42.650;23.248;2023-03-07T05:20:20;91740.75;;;5.53;63.00
53041;BME280;39326;42.650;23.248;2023-03-07T05:22:47;91734.69;;;5.45;63.67
53041;BME280;39326;42.650;23.248;2023-03-07T05:25:13;91736.28;;;5.67;62.55
53041;BME280;39326;42.650;23.248;2023-03-07T05:27:39;91724.16;;;5.59;62.97
53041;BME280;39326;42.650;23.248;2023-03-07T05:30:05;91727.91;;;5.55;62.99
53041;BME280;39326;42.650;23.248;2023-03-07T05:32:31;91724.19;;;5.63;63.20
53041;BME280;39326;42.650;23.248;2023-03-07T05:34:56;91732.34;;;5.33;65.42
53041;BME280;39326;42.650;23.248;2023-03-07T05:37:22;91728.66;;;5.48;64.45
53041;BME280;39326;42.650;23.248;2023-03-07T05:39:47;91745.31;;;5.56;64.37
53041;BME280;39326;42.650;23.248;2023-03-07T05:42:13;91738.19;;;5.67;63.80
53041;BME280;39326;42.650;23.248;2023-03-07T05:44:40;91743.78;;;5.55;64.92
53041;BME280;39326;42.650;23.248;2023-03-07T05:47:05;91744.88;;;5.46;65.64
53041;BME280;39326;42.650;23.248;2023-03-07T05:49:30;91742.63;;;5.48;64.76
53041;BME280;39326;42.650;23.248;2023-03-07T05:51:56;91737.81;;;5.68;62.68
53041;BME280;39326;42.650;23.248;2023-03-07T05:54:21;91739.09;;;5.99;60.06
53041;BME280;39326;42.650;23.248;2023-03-07T05:56:47;91738.34;;;6.13;59.71
53041;BME280;39326;42.650;23.248;2023-03-07T05:59:12;91730.81;;;6.19;58.78
53041;BME280;39326;42.650;23.248;2023-03-07T06:01:42;91735.72;;;6.20;57.82
53041;BME280;39326;42.650;23.248;2023-03-07T06:04:07;91722.53;;;6.49;57.21
53041;BME280;39326;42.650;23.248;2023-03-07T06:06:33;91741.88;;;6.71;56.42
53041;BME280;39326;42.650;23.248;2023-03-07T06:08:59;91746.78;;;6.72;55.90
53041;BME280;39326;42.650;23.248;2023-03-07T06:11:24;91741.88;;;6.85;55.38
53041;BME280;39326;42.650;23.248;2023-03-07T06:13:50;91724.06;;;7.03;55.08
53041;BME280;39326;42.650;23.248;2023-03-07T06:16:15;91736.19;;;7.11;54.47
53041;BME280;39326;42.650;23.248;2023-03-07T06:18:41;91737.31;;;7.21;54.05
53041;BME280;39326;42.650;23.248;2023-03-07T06:21:07;91744.88;;;7.30;54.14
53041;BME280;39326;42.650;23.248;2023-03-07T06:23:35;91749.81;;;7.31;53.67
53041;BME280;39326;42.650;23.248;2023-03-07T06:26:02;91747.88;;;7.46;52.88
53041;BME280;39326;42.650;23.248;2023-03-07T06:28:27;91755.44;;;7.48;53.35
53041;BME280;39326;42.650;23.248;2023-03-07T06:30:53;91751.28;;;7.43;53.00
53041;BME280;39326;42.650;23.248;2023-03-07T06:33:19;91761.56;;;7.27;54.84
53041;BME280;39326;42.650;23.248;2023-03-07T06:35:45;91754.34;;;7.31;54.43
53041;BME280;39326;42.650;23.248;2023-03-07T06:38:12;91754.72;;;7.29;54.30
53041;BME280;39326;42.650;23.248;2023-03-07T06:40:38;91754.34;;;7.31;54.40
53041;BME280;39326;42.650;23.248;2023-03-07T06:43:03;91766.84;;;7.45;54.46
53041;BME280;39326;42.650;23.248;2023-03-07T06:45:29;91772.13;;;7.48;55.35
53041;BME280;39326;42.650;23.248;2023-03-07T06:47:54;91752.84;;;7.26;57.57
53041;BME280;39326;42.650;23.248;2023-03-07T06:50:20;91757.00;;;7.31;57.14
53041;BME280;39326;42.650;23.248;2023-03-07T06:52:45;91766.09;;;7.41;55.26
53041;BME280;39326;42.650;23.248;2023-03-07T06:55:12;91765.28;;;7.61;56.11
53041;BME280;39326;42.650;23.248;2023-03-07T06:57:38;91763.34;;;7.73;55.30
53041;BME280;39326;42.650;23.248;2023-03-07T07:00:04;91770.50;;;7.90;55.62
53041;BME280;39326;42.650;23.248;2023-03-07T07:02:31;91776.19;;;7.92;56.08
53041;BME280;39326;42.650;23.248;2023-03-07T07:04:56;91786.13;;;7.63;58.70
53041;BME280;39326;42.650;23.248;2023-03-07T07:07:23;91777.41;;;7.59;58.27
53041;BME280;39326;42.650;23.248;2023-03-07T07:09:49;91773.22;;;7.69;57.27
53041;BME280;39326;42.650;23.248;2023-03-07T07:12:20;91768.63;;;7.80;56.09
53041;BME280;39326;42.650;23.248;2023-03-07T07:14:46;91762.53;;;7.93;54.33
53041;BME280;39326;42.650;23.248;2023-03-07T07:17:11;91749.59;;;7.99;53.66
53041;BME280;39326;42.650;23.248;2023-03-07T07:19:37;91760.28;;;7.88;52.60
53041;BME280;39326;42.650;23.248;2023-03-07T07:22:02;91772.78;;;7.95;52.52
53041;BME280;39326;42.650;23.248;2023-03-07T07:24:28;91773.06;;;8.15;51.98
53041;BME280;39326;42.650;23.248;2023-03-07T07:26:54;91770.38;;;8.26;51.47
53041;BME280;39326;42.650;23.248;2023-03-07T07:29:20;91770.31;;;8.43;52.07
53041;BME280;39326;42.650;23.248;2023-03-07T07:31:46;91771.41;;;8.50;51.37
53041;BME280;39326;42.650;23.248;2023-03-07T07:34:13;91765.94;;;8.78;50.01
53041;BME280;39326;42.650;23.248;2023-03-07T07:36:39;91782.69;;;9.20;50.20
53041;BME280;39326;42.650;23.248;2023-03-07T07:39:05;91774.09;;;9.50;50.11
53041;BME280;39326;42.650;23.248;2023-03-07T07:41:31;91774.34;;;9.63;49.19
53041;BME280;39326;42.650;23.248;2023-03-07T07:43:57;91790.50;;;9.82;50.58
53041;BME280;39326;42.650;23.248;2023-03-07T07:46:22;91791.28;;;9.83;51.77
53041;BME280;39326;42.650;23.248;2023-03-07T07:48:48;91799.47;;;10.03;52.92
53041;BME280;39326;42.650;23.248;2023-03-07T07:51:13;91800.97;;;10.00;52.91
53041;BME280;39326;42.650;23.248;2023-03-07T07:53:39;91805.13;;;10.39;52.91
53041;BME280;39326;42.650;23.248;2023-03-07T07:56:04;91797.91;;;10.40;52.62
53041;BME280;39326;42.650;23.248;2023-03-07T07:58:30;91796.69;;;10.44;52.34
53041;BME280;39326;42.650;23.248;2023-03-07T08:00:56;91798.38;;;10.31;52.01
53041;BME280;39326;42.650;23.248;2023-03-07T08:03:22;91802.03;;;10.75;51.56
53041;BME280;39326;42.650;23.248;2023-03-07T08:05:47;91799.78;;;11.00;51.46
53041;BME280;39326;42.650;23.248;2023-03-07T08:08:19;91798.41;;;11.39;47.89
53041;BME280;39326;42.650;23.248;2023-03-07T08:10:45;91789.22;;;11.43;49.33
53041;BME280;39326;42.650;23.248;2023-03-07T08:13:15;91805.31;;;11.63;48.17
53041;BME280;39326;42.650;23.248;2023-03-07T08:15:42;91802.59;;;11.67;47.82
53041;BME280;39326;42.650;23.248;2023-03-07T08:18:08;91805.75;;;11.82;48.01
53041;BME280;39326;42.650;23.248;2023-03-07T08:20:37;91799.53;;;11.65;48.00
53041;BME280;39326;42.650;23.248;2023-03-07T08:23:02;91799.47;;;11.92;48.02
53041;BME280;39326;42.650;23.248;2023-03-07T08:25:28;91802.47;;;11.74;47.95
53041;BME280;39326;42.650;23.248;2023-03-07T08:27:54;91804.88;;;11.88;48.17
53041;BME280;39326;42.650;23.248;2023-03-07T08:30:28;91795.81;;;11.82;47.14
53041;BME280;39326;42.650;23.248;2023-03-07T08:32:54;91807.56;;;12.08;46.88
53041;BME280;39326;42.650;23.248;2023-03-07T08:35:21;91802.72;;;12.83;45.33
53041;BME280;39326;42.650;23.248;2023-03-07T08:37:46;91801.47;;;12.87;45.11
53041;BME280;39326;42.650;23.248;2023-03-07T08:40:14;91805.53;;;13.12;44.67
53041;BME280;39326;42.650;23.248;2023-03-07T08:42:41;91804.78;;;13.27;44.59
53041;BME280;39326;42.650;23.248;2023-03-07T08:45:07;91813.25;;;13.42;44.39
53041;BME280;39326;42.650;23.248;2023-03-07T08:47:32;91803.97;;;13.63;43.99
53041;BME280;39326;42.650;23.248;2023-03-07T08:49:58;91796.69;;;13.31;43.87
53041;BME280;39326;42.650;23.248;2023-03-07T08:52:23;91801.34;;;13.11;43.61
53041;BME280;39326;42.650;23.248;2023-03-07T08:54:49;91798.09;;;13.19;44.02
53041;BME280;39326;42.650;23.248;2023-03-07T08:57:14;91798.84;;;13.36;43.73
53041;BME280;39326;42.650;23.248;2023-03-07T08:59:40;91800.69;;;13.23;42.63
53041;BME280;39326;42.650;23.248;2023-03-07T09:02:05;91781.50;;;13.08;43.48
53041;BME280;39326;42.650;23.248;2023-03-07T09:04:30;91800.38;;;13.37;43.92
53041;BME280;39326;42.650;23.248;2023-03-07T09:06:56;91798.94;;;13.16;43.33
53041;BME280;39326;42.650;23.248;2023-03-07T09:09:22;91793.56;;;13.16;43.10
53041;BME280;39326;42.650;23.248;2023-03-07T09:11:48;91803.59;;;13.77;41.74
53041;BME280;39326;42.650;23.248;2023-03-07T09:14:13;91793.41;;;13.56;41.89
53041;BME280;39326;42.650;23.248;2023-03-07T09:16:39;91796.31;;;14.10;42.26
53041;BME280;39326;42.650;23.248;2023-03-07T09:19:04;91787.13;;;13.79;42.60
53041;BME280;39326;42.650;23.248;2023-03-07T09:21:30;91781.13;;;14.33;41.32
53041;BME280;39326;42.650;23.248;2023-03-07T09:23:56;91786.69;;;14.26;41.71
53041;BME280;39326;42.650;23.248;2023-03-07T09:26:21;91791.50;;;14.60;41.47
53041;BME280;39326;42.650;23.248;2023-03-07T09:28:47;91773.81;;;14.75;38.71
53041;BME280;39326;42.650;23.248;2023-03-07T09:31:13;91778.03;;;14.34;38.60
53041;BME280;39326;42.650;23.248;2023-03-07T09:33:40;91774.91;;;14.23;38.23
53041;BME280;39326;42.650;23.248;2023-03-07T09:36:08;91764.41;;;14.42;37.82
53041;BME280;39326;42.650;23.248;2023-03-07T09:38:35;91768.81;;;15.03;37.69
53041;BME280;39326;42.650;23.248;2023-03-07T09:41:09;91760.41;;;15.52;37.60
53041;BME280;39326;42.650;23.248;2023-03-07T09:43:46;91762.56;;;15.44;37.83
53041;BME280;39326;42.650;23.248;2023-03-07T09:49:33;91745.66;;;15.69;36.35
53041;BME280;39326;42.650;23.248;2023-03-07T09:52:10;91752.44;;;16.30;35.52
53041;BME280;39326;42.650;23.248;2023-03-07T09:54:41;91752.69;;;16.45;35.25
53041;BME280;39326;42.650;23.248;2023-03-07T09:57:29;91739.16;;;16.14;34.78
53041;BME280;39326;42.650;23.248;2023-03-07T10:00:19;91740.03;;;16.11;34.19
53041;BME280;39326;42.650;23.248;2023-03-07T10:05:30;91735.75;;;16.88;32.59
53041;BME280;39326;42.650;23.248;2023-03-07T10:07:56;91717.53;;;16.70;34.28
53041;BME280;39326;42.650;23.248;2023-03-07T10:10:23;91725.88;;;15.97;34.47
53041;BME280;39326;42.650;23.248;2023-03-07T10:21:11;91723.19;;;15.63;34.99
53041;BME280;39326;42.650;23.248;2023-03-07T10:26:17;91722.94;;;15.70;35.83
53041;BME280;39326;42.650;23.248;2023-03-07T10:28:46;91716.75;;;15.95;32.05
53041;BME280;39326;42.650;23.248;2023-03-07T10:31:28;91719.69;;;16.10;32.26
53041;BME280;39326;42.650;23.248;2023-03-07T10:33:57;91711.06;;;16.15;32.60
53041;BME280;39326;42.650;23.248;2023-03-07T10:36:34;91715.09;;;15.76;33.49
53041;BME280;39326;42.650;23.248;2023-03-07T10:39:27;91717.47;;;14.88;33.17
53041;BME280;39326;42.650;23.248;2023-03-07T10:41:54;91717.09;;;14.60;33.89
53041;BME280;39326;42.650;23.248;2023-03-07T10:44:21;91705.97;;;14.75;33.79
53041;BME280;39326;42.650;23.248;2023-03-07T10:46:51;91709.06;;;14.60;33.39
53041;BME280;39326;42.650;23.248;2023-03-07T10:49:23;91704.63;;;14.41;34.40
53041;BME280;39326;42.650;23.248;2023-03-07T10:54:37;91686.03;;;14.21;34.96
53041;BME280;39326;42.650;23.248;2023-03-07T10:57:29;91686.09;;;14.59;34.78
53041;BME280;39326;42.650;23.248;2023-03-07T11:00:11;91692.66;;;14.71;32.47
53041;BME280;39326;42.650;23.248;2023-03-07T11:02:42;91678.59;;;14.67;33.37
53041;BME280;39326;42.650;23.248;2023-03-07T11:07:48;91668.69;;;14.26;32.15
53041;BME280;39326;42.650;23.248;2023-03-07T11:10:31;91656.78;;;14.27;33.18
53041;BME280;39326;42.650;23.248;2023-03-07T11:13:06;91653.13;;;14.46;34.33
53041;BME280;39326;42.650;23.248;2023-03-07T11:15:31;91644.44;;;14.80;33.80
53041;BME280;39326;42.650;23.248;2023-03-07T11:17:57;91654.63;;;14.73;33.98
53041;BME280;39326;42.650;23.248;2023-03-07T11:20:23;91638.00;;;14.39;34.91
53041;BME280;39326;42.650;23.248;2023-03-07T11:23:11;91639.31;;;14.73;35.16
53041;BME280;39326;42.650;23.248;2023-03-07T11:25:35;91624.47;;;14.94;35.25
53041;BME280;39326;42.650;23.248;2023-03-07T11:28:01;91624.88;;;15.40;34.30
53041;BME280;39326;42.650;23.248;2023-03-07T11:35:57;91627.41;;;15.22;33.69
53041;BME280;39326;42.650;23.248;2023-03-07T11:38:34;91631.69;;;15.32;33.45
53041;BME280;39326;42.650;23.248;2023-03-07T11:41:26;91629.78;;;15.19;33.35
53041;BME280;39326;42.650;23.248;2023-03-07T11:44:10;91630.91;;;14.07;34.94
53041;BME280;39326;42.650;23.248;2023-03-07T11:47:29;91621.47;;;14.54;34.96
53041;BME280;39326;42.650;23.248;2023-03-07T11:49:46;91615.97;;;15.08;33.90
53041;BME280;39326;42.650;23.248;2023-03-07T12:00:55;91614.19;;;15.62;31.18
53041;BME280;39326;42.650;23.248;2023-03-07T12:11:21;91605.41;;;15.14;31.95
53041;BME280;39326;42.650;23.248;2023-03-07T12:19:42;91580.50;;;14.28;33.30
53041;BME280;39326;42.650;23.248;2023-03-07T12:22:29;91593.78;;;14.06;33.65
53041;BME280;39326;42.650;23.248;2023-03-07T12:27:49;91587.75;;;14.65;33.93
53041;BME280;39326;42.650;23.248;2023-03-07T12:30:23;91592.25;;;14.94;32.69
53041;BME280;39326;42.650;23.248;2023-03-07T12:32:50;91580.09;;;15.37;32.47
53041;BME280;39326;42.650;23.248;2023-03-07T12:38:06;91591.94;;;15.27;30.97
53041;BME280;39326;42.650;23.248;2023-03-07T12:40:41;91586.63;;;15.36;30.40
53041;BME280;39326;42.650;23.248;2023-03-07T12:46:17;91577.41;;;15.37;29.85
53041;BME280;39326;42.650;23.248;2023-03-07T12:51:57;91559.28;;;15.94;29.51
53041;BME280;39326;42.650;23.248;2023-03-07T12:54:29;91563.78;;;15.97;29.35
53041;BME280;39326;42.650;23.248;2023-03-07T12:57:17;91557.00;;;16.14;29.69
53041;BME280;39326;42.650;23.248;2023-03-07T12:59:45;91562.19;;;16.49;29.28
53041;BME280;39326;42.650;23.248;2023-03-07T13:04:43;91560.97;;;16.41;29.54
53041;BME280;39326;42.650;23.248;2023-03-07T13:09:37;91563.69;;;16.10;29.27
53041;BME280;39326;42.650;23.248;2023-03-07T13:12:21;91558.53;;;15.71;28.29
53041;BME280;39326;42.650;23.248;2023-03-07T13:45:57;91557.78;;;13.65;32.63
53041;BME280;39326;42.650;23.248;2023-03-07T13:59:00;91555.59;;;13.89;32.58
53041;BME280;39326;42.650;23.248;2023-03-07T14:01:31;91562.22;;;13.84;32.11
53041;BME280;39326;42.650;23.248;2023-03-07T14:04:12;91565.16;;;13.48;32.89
53041;BME280;39326;42.650;23.248;2023-03-07T14:06:51;91559.88;;;13.16;33.64
53041;BME280;39326;42.650;23.248;2023-03-07T14:09:22;91572.06;;;13.04;33.98
53041;BME280;39326;42.650;23.248;2023-03-07T14:11:58;91579.94;;;12.95;33.57
53041;BME280;39326;42.650;23.248;2023-03-07T14:22:24;91579.28;;;12.42;35.26
53041;BME280;39326;42.650;23.248;2023-03-07T14:28:03;91592.06;;;12.34;34.76
53041;BME280;39326;42.650;23.248;2023-03-07T14:30:31;91579.84;;;12.33;35.63
53041;BME280;39326;42.650;23.248;2023-03-07T14:32:58;91595.78;;;12.20;35.83
53041;BME280;39326;42.650;23.248;2023-03-07T14:35:41;91585.94;;;12.17;36.13
53041;BME280;39326;42.650;23.248;2023-03-07T14:38:15;91598.97;;;12.15;36.03
53041;BME280;39326;42.650;23.248;2023-03-07T14:40:56;91591.72;;;12.16;35.95
53041;BME280;39326;42.650;23.248;2023-03-07T14:51:28;91593.16;;;12.01;35.54
53041;BME280;39326;42.650;23.248;2023-03-07T14:53:55;91585.19;;;12.17;34.83
53041;BME280;39326;42.650;23.248;2023-03-07T14:56:24;91590.88;;;12.19;35.18
53041;BME280;39326;42.650;23.248;2023-03-07T14:58:54;91594.88;;;12.27;35.35
53041;BME280;39326;42.650;23.248;2023-03-07T15:01:21;91586.59;;;12.21;35.24
53041;BME280;39326;42.650;23.248;2023-03-07T15:03:48;91581.25;;;12.05;35.45
53041;BME280;39326;42.650;23.248;2023-03-07T15:06:16;91585.19;;;12.17;35.68
53041;BME280;39326;42.650;23.248;2023-03-07T15:08:43;91577.25;;;12.30;35.71
53041;BME280;39326;42.650;23.248;2023-03-07T15:16:41;91580.38;;;11.92;36.88